Main page
METAR-TAF:

METAR-TAF

Airports :

Stockholm Arlanda Airport

Stockholm-Arlanda, Sweden

latitude: 59-39N, longitude: 017-57E, elevation: 38 m

Current weather observation

The report was made 18 minutes ago, at 07:20 UTC
Wind 15 kt from the West/Southwest
Temperature 15°C
Humidity 59%
Pressure 1009 hPa
Visibility 10 km or more
Few clouds at a height of 3400 ft

METAR: ESSA 150720Z 25015KT 9999 FEW034 15/07 Q1009 NOSIG

Time: 09:38 (07:38 UTC)

Forecast

The report was made 2 hours and 8 minutes ago, at 05:30 UTC
Forecast valid from 15 at 06 UTC to 16 at 06 UTC
Wind 12 kt from the West/Southwest
Visibility 10 km or more
Scattered clouds at a height of 2000 ft
Becoming
from 15 at 08 UTC to 15 at 10 UTC
Wind 15 kt from the West with gusts up to 25 kt
Becoming
from 15 at 18 UTC to 15 at 20 UTC
Wind 8 kt from the West/Southwest

TAF: ESSA 150530Z 1506/1606 25012KT 9999 SCT020 BECMG 1508/1510 27015G25KT BECMG 1518/1520 25008KT

Weather observations and forecasts of more than 4000 airports (METAR and TAF reports).

The available stations are represented by yellow and red dots on the map.

Hover mouse over dot to see the name of the station.

Then click to see weather observations and forecasts.

To change the map : click on the green buttons with a black cross to zoom in, on the green button with a dash to zoom out, or on the green arrows for adjacent maps.


METAR-TAF: